Página principal
METAR-TAF:

METAR-TAF

Aeroportos :

Aeroporto Internacional Mataveri

Ilha de Páscoa, Chile

latitude: 27-09S, longitude: 109-25W, altura: 51 m

Observação actual do tempo

O boletim foi feito há 46 minutos, às 11:00 UTC
Vento 4 kt de sudeste
Temperatura 13°C
Humidade 94%
Pressão 1022 hPa
Visibilidade 10 km ou mais
sem nuvens abaixo de 1500 metros e sem cumulonimbus

METAR: SCIP 191100Z 13004KT CAVOK 13/12 Q1022 NOSIG

Hora: 05:46 (11:46 UTC)

Previsão

O boletim foi feito há 1 hora e 45 minutos, às 10:01 UTC
Previsão válida de 19 às 12 UTC a 20 às 12 UTC
Vento 7 kt de nor-nordeste
Visibilidade 10 km ou mais
Nuvens dispersasa uma altura de 2000 ft
Temporariamente
de 20 às 04 UTC a 20 às 06 UTC
Visibilidade: 5000 m
Nuvens dispersasa uma altura de 1500 ft
Nuvens fragmentadasa uma altura de 2500 ft
aguaceiros fracos de chuva

TAF: SCIP 191001Z 1912/2012 02007KT 9999 SCT020 TX22/1920Z TN15/2010Z TEMPO 2004/2006 5000 -SHRA SCT015 BKN025

Observações e previsões do tempo de mais de 4000 aeroportos (mensagens METAR e TAF).

As estações disponíveis são os pontos amarelos e vermelhos sobre o mapa.

Mova o rato sobre o mapa para ver o nome da estação.

Depois clique no ponto para visualizar as observações e previsões meteorológicas.

Para alterar o mapa : clique nos botões verdes com uma cruz preta para aumentar o zoom; no botão verde com uma pitada de zoom; ou nas setas verdes para mapas adjacentes.


METAR-TAF: